Time;durP1;ratioP1;P1;durP2;ratioP2;P2;SDS_P1;SDS_P2;PMS_P1;PMS_P2;Temp;Humidity;BMP_temperature;BMP_pressure;BME280_temperature;BME280_humidity;BME280_pressure;Samples;Min_cycle;Max_cycle;Signal;HPM_P1;HPM_P2
2022/11/13 00:02:14;;;;;;;2.70;1.13;;;7.30;95.40;;;;;;4957367;28;20058;-86
2022/11/13 00:05:00;;;;;;;2.88;1.40;;;7.30;95.40;;;;;;4945407;28;20541;-86
2022/11/13 00:07:45;;;;;;;2.60;1.27;;;7.30;95.40;;;;;;4950391;28;20467;-87
2022/11/13 00:10:34;;;;;;;3.00;1.23;;;7.30;95.40;;;;;;4955630;28;20057;-85
2022/11/13 00:13:23;;;;;;;4.00;1.77;;;7.30;95.40;;;;;;4963906;28;20061;-86
2022/11/13 00:16:17;;;;;;;3.30;1.25;;;7.40;95.40;;;;;;4951375;28;20066;-86
2022/11/13 00:19:08;;;;;;;2.83;1.48;;;7.40;95.30;;;;;;4976884;28;20647;-86
2022/11/13 00:21:58;;;;;;;3.28;1.42;;;7.40;95.30;;;;;;4963451;28;20161;-86
2022/11/13 00:24:48;;;;;;;2.90;1.52;;;7.40;95.30;;;;;;4975932;28;20145;-84
2022/11/13 00:27:34;;;;;;;3.28;1.58;;;7.40;95.30;;;;;;4962730;28;20407;-86
2022/11/13 00:30:23;;;;;;;3.17;1.42;;;7.40;95.40;;;;;;4976124;28;20058;-86
2022/11/13 00:33:09;;;;;;;2.42;1.30;;;7.40;95.40;;;;;;4976417;28;20141;-86
2022/11/13 00:36:20;;;;;;;2.28;1.23;;;7.40;95.40;;;;;;4976251;28;20054;-86
2022/11/13 00:39:16;;;;;;;3.90;2.05;;;7.40;95.40;;;;;;4971074;28;20058;-86
2022/11/13 00:42:08;;;;;;;3.90;1.92;;;7.30;95.30;;;;;;4976288;28;20045;-86
2022/11/13 00:45:08;;;;;;;3.05;1.70;;;7.40;95.40;;;;;;4962697;28;20133;-86
2022/11/13 00:48:06;;;;;;;3.05;1.42;;;7.30;95.40;;;;;;4963364;28;20144;-86
2022/11/13 00:51:03;;;;;;;3.15;1.58;;;7.30;95.40;;;;;;4948189;28;20053;-86
2022/11/13 00:53:55;;;;;;;2.63;1.10;;;7.30;95.40;;;;;;4975831;28;20069;-86
2022/11/13 00:56:45;;;;;;;2.97;1.40;;;7.40;95.40;;;;;;4962801;28;20182;-85
2022/11/13 00:59:36;;;;;;;2.53;1.13;;;7.40;95.30;;;;;;4975849;28;20506;-86
2022/11/13 01:02:25;;;;;;;1.98;1.10;;;7.40;95.30;;;;;;4949102;28;20102;-87
2022/11/13 01:05:11;;;;;;;2.33;1.13;;;7.40;95.30;;;;;;4962193;28;20134;-86
2022/11/13 01:07:59;;;;;;;2.97;1.27;;;7.40;95.30;;;;;;4975996;28;20415;-86
2022/11/13 01:10:50;;;;;;;2.47;1.10;;;7.40;95.30;;;;;;4961396;28;20054;-86
2022/11/13 01:13:44;;;;;;;3.13;1.23;;;7.30;95.30;;;;;;4969527;28;20062;-86
2022/11/13 01:16:31;;;;;;;3.00;1.60;;;7.30;95.30;;;;;;4943378;29;20059;-86
2022/11/13 01:19:27;;;;;;;3.00;1.10;;;7.30;95.30;;;;;;4969815;28;20049;-88
2022/11/13 01:22:13;;;;;;;2.78;1.35;;;7.30;95.40;;;;;;4962230;28;20050;-86
2022/11/13 01:24:59;;;;;;;4.28;1.63;;;7.30;95.40;;;;;;4975764;28;20054;-85
2022/11/13 01:27:49;;;;;;;3.33;1.58;;;7.30;95.30;;;;;;4975711;28;20530;-85
2022/11/13 01:30:39;;;;;;;2.63;1.33;;;7.30;95.30;;;;;;4962293;28;20529;-86
2022/11/13 01:33:24;;;;;;;2.63;1.13;;;7.20;95.30;;;;;;4975440;28;20178;-86
2022/11/13 01:36:15;;;;;;;2.10;1.20;;;7.20;95.40;;;;;;4974877;28;20109;-85
2022/11/13 01:39:02;;;;;;;2.33;1.00;;;7.10;95.40;;;;;;4965188;28;20136;-86
2022/11/13 01:41:48;;;;;;;2.92;1.23;;;7.10;95.40;;;;;;4948236;28;20061;-86
2022/11/13 01:44:53;;;;;;;2.55;1.27;;;7.10;95.40;;;;;;4975257;28;20133;-86
2022/11/13 01:47:39;;;;;;;2.50;1.13;;;7.10;95.40;;;;;;4975587;28;20061;-86
2022/11/13 01:50:25;;;;;;;2.53;1.10;;;7.10;95.40;;;;;;4975394;28;20132;-86
2022/11/13 01:53:11;;;;;;;2.78;1.13;;;7.20;95.40;;;;;;4975089;28;20217;-87
2022/11/13 01:55:56;;;;;;;2.17;0.95;;;7.20;95.40;;;;;;4975024;28;20105;-86
2022/11/13 01:58:48;;;;;;;2.30;1.35;;;7.20;95.30;;;;;;4961421;28;20046;-85
2022/11/13 02:01:33;;;;;;;3.22;1.10;;;7.20;95.30;;;;;;4973007;28;20045;-86
2022/11/13 02:04:20;;;;;;;2.78;1.40;;;7.20;95.30;;;;;;4961550;28;20077;-85
2022/11/13 02:07:14;;;;;;;2.10;0.90;;;7.20;95.30;;;;;;4957462;28;20058;-85
2022/11/13 02:10:00;;;;;;;2.00;1.00;;;7.20;95.30;;;;;;4962826;28;20053;-86
2022/11/13 02:12:51;;;;;;;2.38;0.90;;;7.20;95.30;;;;;;4971730;28;20061;-86
2022/11/13 02:15:39;;;;;;;1.58;0.80;;;7.20;95.20;;;;;;4965598;28;20058;-86
2022/11/13 02:18:29;;;;;;;2.95;1.10;;;7.20;95.20;;;;;;4960825;28;20509;-86
2022/11/13 02:21:35;;;;;;;1.52;0.77;;;7.20;95.20;;;;;;4972766;28;20045;-86
2022/11/13 02:24:24;;;;;;;2.33;0.90;;;7.30;95.20;;;;;;4974724;28;20053;-85
2022/11/13 02:27:33;;;;;;;2.15;0.90;;;7.20;95.20;;;;;;4993689;28;20052;-86
2022/11/13 02:30:22;;;;;;;1.52;0.77;;;7.30;95.20;;;;;;4960726;28;20076;-87
2022/11/13 02:33:29;;;;;;;1.80;0.90;;;7.20;95.20;;;;;;4996852;28;20053;-86
2022/11/13 02:36:17;;;;;;;2.13;0.95;;;7.20;95.10;;;;;;4995447;28;20053;-86
2022/11/13 02:39:11;;;;;;;2.25;1.05;;;7.20;95.40;;;;;;4987477;28;20048;-86
2022/11/13 02:41:57;;;;;;;1.77;0.80;;;7.10;95.20;;;;;;4987432;28;20122;-86
2022/11/13 02:44:48;;;;;;;1.73;0.50;;;7.10;95.20;;;;;;4966765;28;20057;-86
2022/11/13 02:47:38;;;;;;;1.92;0.73;;;7.20;95.20;;;;;;4936872;28;20041;-85
2022/11/13 02:50:23;;;;;;;2.47;1.05;;;7.20;95.20;;;;;;4960552;28;20053;-86
2022/11/13 02:53:09;;;;;;;3.13;1.00;;;7.20;95.10;;;;;;4976191;28;20073;-83
2022/11/13 02:55:54;;;;;;;1.65;1.00;;;7.20;95.10;;;;;;4959944;28;20062;-84
2022/11/13 02:58:40;;;;;;;1.55;0.80;;;7.10;95.10;;;;;;4974832;28;20057;-84
2022/11/13 03:01:28;;;;;;;2.20;1.00;;;7.10;95.10;;;;;;4979221;28;20403;-84
2022/11/13 03:04:16;;;;;;;2.47;1.05;;;7.10;95.20;;;;;;5006441;28;20096;-83
2022/11/13 03:07:02;;;;;;;2.00;1.00;;;7.10;95.20;;;;;;4966284;28;20101;-84
2022/11/13 03:09:47;;;;;;;1.90;0.93;;;7.10;95.20;;;;;;4979051;28;20061;-83
2022/11/13 03:12:37;;;;;;;2.28;1.00;;;7.10;95.20;;;;;;4965749;28;20181;-83
2022/11/13 03:15:26;;;;;;;2.45;0.98;;;7.20;95.10;;;;;;4965563;28;20052;-83
2022/11/13 03:18:30;;;;;;;2.20;0.98;;;7.20;95.00;;;;;;4933718;28;20054;-83
2022/11/13 03:21:24;;;;;;;1.73;1.02;;;7.20;95.00;;;;;;4947616;28;20050;-83
2022/11/13 03:24:10;;;;;;;1.55;0.73;;;7.10;95.30;;;;;;4946506;28;20470;-83
2022/11/13 03:26:56;;;;;;;2.42;1.02;;;7.10;95.10;;;;;;4946224;28;20045;-83
2022/11/13 03:29:43;;;;;;;2.53;1.00;;;7.10;95.10;;;;;;4960083;28;20105;-83
2022/11/13 03:32:29;;;;;;;2.80;1.00;;;7.00;95.10;;;;;;4972994;28;20066;-84
2022/11/13 03:35:15;;;;;;;1.40;0.73;;;7.00;95.10;;;;;;4962629;28;20455;-84
2022/11/13 03:38:02;;;;;;;1.90;1.13;;;6.90;95.20;;;;;;4963130;28;20407;-82
2022/11/13 03:40:48;;;;;;;2.30;1.10;;;6.90;95.20;;;;;;4948663;28;20057;-84
2022/11/13 03:43:33;;;;;;;2.45;1.33;;;6.90;95.20;;;;;;4976955;28;20042;-84
2022/11/13 03:46:19;;;;;;;2.70;1.23;;;6.80;95.20;;;;;;4963456;28;20058;-84
2022/11/13 03:49:04;;;;;;;2.35;1.38;;;6.80;95.20;;;;;;4937698;28;20057;-84
2022/11/13 03:51:55;;;;;;;2.72;1.40;;;6.80;95.20;;;;;;4950563;28;20058;-84
2022/11/13 03:54:41;;;;;;;2.47;1.00;;;6.80;95.30;;;;;;4949812;28;20141;-84
2022/11/13 03:57:26;;;;;;;2.72;1.23;;;6.70;95.20;;;;;;4962954;28;20073;-83
2022/11/13 04:00:13;;;;;;;1.83;0.88;;;6.70;95.30;;;;;;4936174;28;20137;-84
2022/11/13 04:02:59;;;;;;;2.60;1.05;;;6.60;95.30;;;;;;4962743;28;20189;-83
2022/11/13 04:05:47;;;;;;;2.10;0.90;;;6.60;95.30;;;;;;4962549;28;20049;-84
2022/11/13 04:08:36;;;;;;;3.15;1.33;;;6.50;95.40;;;;;;4966217;28;20602;-84
2022/11/13 04:11:24;;;;;;;2.47;1.00;;;6.50;95.40;;;;;;4962337;28;20049;-84
2022/11/13 04:14:10;;;;;;;2.15;1.05;;;6.50;95.40;;;;;;4956790;28;20137;-84
2022/11/13 04:17:04;;;;;;;2.42;1.10;;;6.50;95.40;;;;;;4963599;28;20625;-84
2022/11/13 04:19:53;;;;;;;2.55;1.23;;;6.50;95.40;;;;;;4995603;28;20045;-84
2022/11/13 04:22:38;;;;;;;2.08;1.13;;;6.40;95.40;;;;;;4977914;28;20057;-84
2022/11/13 04:25:26;;;;;;;2.78;1.15;;;6.40;95.40;;;;;;4967568;28;20495;-84
2022/11/13 04:28:12;;;;;;;2.45;1.52;;;6.40;95.40;;;;;;4981624;28;20105;-84
2022/11/13 04:30:58;;;;;;;2.63;1.63;;;6.30;95.40;;;;;;4968049;28;20181;-84
2022/11/13 04:33:45;;;;;;;2.65;1.42;;;6.30;95.50;;;;;;4968477;28;20061;-84
2022/11/13 04:36:31;;;;;;;2.95;1.48;;;6.40;95.40;;;;;;4968081;28;20068;-84
2022/11/13 04:39:16;;;;;;;2.67;1.23;;;6.40;95.40;;;;;;4967556;28;20056;-84
2022/11/13 04:45:07;;;;;;;3.70;1.38;;;6.30;95.40;;;;;;4995669;28;20514;-84
2022/11/13 04:47:53;;;;;;;3.00;1.98;;;6.20;95.40;;;;;;4995090;28;20189;-84
2022/11/13 04:50:39;;;;;;;3.30;1.50;;;6.20;95.40;;;;;;4954515;28;20050;-84
2022/11/13 04:53:24;;;;;;;3.38;1.75;;;6.20;95.50;;;;;;4954404;28;20177;-84
2022/11/13 04:56:10;;;;;;;2.42;1.13;;;6.10;95.50;;;;;;4967689;28;20172;-84
2022/11/13 04:58:55;;;;;;;3.70;1.55;;;6.10;95.50;;;;;;4967215;28;20053;-83
2022/11/13 05:01:45;;;;;;;3.15;1.45;;;6.10;95.50;;;;;;4968003;28;20049;-84
2022/11/13 05:04:37;;;;;;;3.30;1.50;;;6.00;95.80;;;;;;4955443;28;20065;-83
2022/11/13 05:07:25;;;;;;;3.00;1.70;;;6.00;95.60;;;;;;4968272;28;20561;-84
2022/11/13 05:10:10;;;;;;;3.83;1.88;;;5.90;95.60;;;;;;4999150;28;20062;-85
2022/11/13 05:12:56;;;;;;;3.00;1.88;;;5.90;95.60;;;;;;4979092;28;20069;-84
2022/11/13 05:15:41;;;;;;;3.78;1.38;;;5.90;95.60;;;;;;4954081;28;20110;-86
2022/11/13 05:18:30;;;;;;;3.28;1.80;;;5.90;95.60;;;;;;4954617;28;20466;-86
2022/11/13 05:21:16;;;;;;;2.53;1.38;;;5.80;95.60;;;;;;4985511;28;20056;-85
2022/11/13 05:24:02;;;;;;;3.28;1.58;;;5.80;95.60;;;;;;4967686;28;20054;-85
2022/11/13 05:26:48;;;;;;;2.90;1.60;;;5.80;95.60;;;;;;4974818;28;20094;-86
2022/11/13 05:29:39;;;;;;;2.10;1.17;;;5.80;95.60;;;;;;4967554;28;20124;-85
2022/11/13 05:32:25;;;;;;;2.97;1.27;;;5.80;95.60;;;;;;4968027;28;20053;-86
2022/11/13 05:35:11;;;;;;;3.22;1.50;;;5.70;95.60;;;;;;4967912;28;20112;-85
2022/11/13 05:38:00;;;;;;;3.03;1.20;;;5.70;95.60;;;;;;4973561;28;20136;-86
2022/11/13 05:40:46;;;;;;;3.75;1.60;;;5.70;95.60;;;;;;4966661;28;20049;-86
2022/11/13 05:43:41;;;;;;;3.20;1.42;;;5.70;95.70;;;;;;4968914;28;20165;-86
2022/11/13 05:46:29;;;;;;;2.88;1.60;;;5.70;95.70;;;;;;4981302;28;20077;-86
2022/11/13 05:49:15;;;;;;;2.55;1.30;;;5.70;95.60;;;;;;4948496;28;20133;-86
2022/11/13 05:52:00;;;;;;;4.03;1.85;;;5.70;95.90;;;;;;4951298;28;20053;-85
2022/11/13 05:54:46;;;;;;;3.20;1.73;;;5.70;95.60;;;;;;4971161;28;20152;-85
2022/11/13 05:57:31;;;;;;;2.90;1.70;;;5.70;95.60;;;;;;4966042;28;20121;-85
2022/11/13 06:00:17;;;;;;;3.08;1.30;;;5.60;95.60;;;;;;4988367;28;20050;-84
2022/11/13 06:03:03;;;;;;;3.05;1.70;;;5.60;95.60;;;;;;4967081;28;20092;-85
2022/11/13 06:05:48;;;;;;;2.58;1.50;;;5.60;95.60;;;;;;4979712;28;20048;-85
2022/11/13 06:08:36;;;;;;;2.95;1.70;;;5.60;95.60;;;;;;4979870;28;20057;-86
2022/11/13 06:11:29;;;;;;;2.83;1.60;;;5.60;95.60;;;;;;4971410;28;20053;-85
2022/11/13 06:14:17;;;;;;;3.30;1.80;;;5.60;95.60;;;;;;4984638;28;20061;-85
2022/11/13 06:17:02;;;;;;;3.10;1.65;;;5.50;95.60;;;;;;4966940;28;20061;-85
2022/11/13 06:19:48;;;;;;;2.58;1.35;;;5.50;95.70;;;;;;4960275;28;20168;-86
2022/11/13 06:22:33;;;;;;;2.75;1.60;;;5.40;95.70;;;;;;4980353;28;20053;-85
2022/11/13 06:25:18;;;;;;;3.20;1.45;;;5.40;95.70;;;;;;4980224;28;20093;-85
2022/11/13 06:28:04;;;;;;;3.88;1.70;;;5.40;95.70;;;;;;4982000;28;20057;-85
2022/11/13 06:30:49;;;;;;;3.40;1.70;;;5.40;95.70;;;;;;4980211;28;20053;-86
2022/11/13 06:33:36;;;;;;;3.70;1.80;;;5.40;95.80;;;;;;5000512;28;20061;-88
2022/11/13 06:36:24;;;;;;;2.50;1.33;;;5.30;95.80;;;;;;4982545;28;20061;-86
2022/11/13 06:39:11;;;;;;;2.67;1.60;;;5.30;95.80;;;;;;4967265;28;20407;-85
2022/11/13 06:41:57;;;;;;;2.80;1.48;;;5.30;95.80;;;;;;4978647;28;20085;-87
2022/11/13 06:44:42;;;;;;;2.33;1.17;;;5.30;95.80;;;;;;4966046;28;20061;-85
2022/11/13 06:47:30;;;;;;;3.65;1.90;;;5.30;95.80;;;;;;4966627;28;20041;-85
2022/11/13 06:50:25;;;;;;;3.00;1.48;;;5.30;95.70;;;;;;4969202;28;20061;-86
2022/11/13 06:53:13;;;;;;;2.55;1.45;;;5.30;95.70;;;;;;4991570;28;20147;-86
2022/11/13 06:56:09;;;;;;;3.15;1.77;;;5.40;95.70;;;;;;4968310;28;20133;-86
2022/11/13 06:58:55;;;;;;;2.58;1.23;;;5.40;95.70;;;;;;4990745;28;20069;-85
2022/11/13 07:01:50;;;;;;;2.47;1.23;;;5.50;95.70;;;;;;4983224;28;20057;-86
2022/11/13 07:08:35;;;;;;;3.00;1.30;;;5.60;95.50;;;;;;4994580;28;20109;-86
2022/11/13 07:11:22;;;;;;;2.47;1.27;;;5.50;95.40;;;;;;4970151;28;20061;-86
2022/11/13 07:14:11;;;;;;;2.30;0.98;;;5.50;95.40;;;;;;4970321;28;20053;-86
2022/11/13 07:16:56;;;;;;;2.38;0.95;;;5.50;95.70;;;;;;4997355;28;20061;-86
2022/11/13 07:19:54;;;;;;;2.50;1.30;;;5.50;95.40;;;;;;4985608;28;20140;-86
2022/11/13 07:22:39;;;;;;;2.72;1.00;;;5.40;95.50;;;;;;4960735;28;20050;-87
2022/11/13 07:25:26;;;;;;;2.50;1.63;;;5.40;95.50;;;;;;4954095;28;20691;-87
2022/11/13 07:28:12;;;;;;;2.10;1.08;;;5.40;95.50;;;;;;4990187;28;20143;-86
2022/11/13 07:30:58;;;;;;;2.92;1.30;;;5.50;95.50;;;;;;4969220;28;20057;-87
2022/11/13 07:33:46;;;;;;;2.80;1.30;;;5.50;95.50;;;;;;4997255;28;20069;-86
2022/11/13 07:36:32;;;;;;;2.50;1.02;;;5.50;95.50;;;;;;4969409;28;20057;-88
2022/11/13 07:39:17;;;;;;;1.88;1.10;;;5.60;95.40;;;;;;4964954;28;20045;-87
2022/11/13 07:42:03;;;;;;;2.08;0.93;;;5.70;95.40;;;;;;4969614;28;20049;-87
2022/11/13 07:44:48;;;;;;;2.88;1.20;;;5.70;95.30;;;;;;4997033;28;20049;-87
2022/11/13 07:47:41;;;;;;;2.50;1.30;;;5.80;95.20;;;;;;4973095;28;20614;-88
2022/11/13 07:50:33;;;;;;;2.45;1.10;;;5.80;95.20;;;;;;4971995;28;20077;-88
2022/11/13 07:53:20;;;;;;;1.95;1.02;;;5.90;95.10;;;;;;4988676;28;20113;-87
2022/11/13 07:56:07;;;;;;;2.50;1.38;;;5.90;95.10;;;;;;4988613;28;20070;-86
2022/11/13 07:58:56;;;;;;;2.28;1.00;;;6.00;95.10;;;;;;4979695;28;20054;-87
2022/11/13 08:01:41;;;;;;;2.40;1.00;;;6.00;95.00;;;;;;4984062;28;20547;-86
2022/11/13 08:04:28;;;;;;;2.05;0.90;;;6.00;95.00;;;;;;4983215;28;20049;-86
2022/11/13 08:07:13;;;;;;;2.50;1.00;;;6.10;95.00;;;;;;4980593;28;20053;-86
2022/11/13 08:09:59;;;;;;;2.10;1.10;;;6.10;94.90;;;;;;4992057;28;20423;-86
2022/11/13 08:12:45;;;;;;;1.48;0.70;;;6.20;94.90;;;;;;4982500;28;20073;-86
2022/11/13 08:15:32;;;;;;;1.85;1.13;;;6.20;94.90;;;;;;4969550;28;20062;-87
2022/11/13 08:18:17;;;;;;;2.25;1.10;;;6.30;94.80;;;;;;4994555;28;20136;-86
2022/11/13 08:21:04;;;;;;;2.55;1.20;;;6.30;94.80;;;;;;4990330;28;20399;-87
2022/11/13 08:23:56;;;;;;;2.78;1.00;;;6.40;94.70;;;;;;4971136;28;20058;-87
2022/11/13 08:26:42;;;;;;;2.65;1.20;;;6.40;94.60;;;;;;4995222;28;20109;-86
2022/11/13 08:29:28;;;;;;;2.38;1.10;;;6.50;94.60;;;;;;4982493;28;20077;-87
2022/11/13 08:32:14;;;;;;;2.63;1.40;;;6.60;94.50;;;;;;4972030;28;20517;-86
2022/11/13 08:35:00;;;;;;;2.28;1.30;;;6.70;94.50;;;;;;4980356;28;20529;-86
2022/11/13 08:37:46;;;;;;;3.85;1.70;;;6.80;94.40;;;;;;4990351;28;20061;-85
2022/11/13 08:40:32;;;;;;;3.08;1.60;;;6.80;94.30;;;;;;4981612;28;20053;-86
2022/11/13 08:43:18;;;;;;;2.83;1.65;;;6.90;94.30;;;;;;4982164;28;20053;-85
2022/11/13 08:46:04;;;;;;;4.35;2.25;;;7.00;94.50;;;;;;4982503;28;20066;-86
2022/11/13 08:48:52;;;;;;;2.63;1.63;;;7.10;94.10;;;;;;4993513;28;20049;-86
2022/11/13 08:51:40;;;;;;;3.50;1.88;;;7.20;94.10;;;;;;4968720;28;20205;-85
2022/11/13 08:54:26;;;;;;;2.17;1.55;;;7.30;94.00;;;;;;4971360;28;20054;-85
2022/11/13 08:57:11;;;;;;;3.05;1.63;;;7.30;94.00;;;;;;5009383;28;20052;-86
2022/11/13 08:59:57;;;;;;;2.45;1.40;;;7.40;93.90;;;;;;4995621;28;20533;-86
2022/11/13 09:02:43;;;;;;;3.22;1.75;;;7.40;93.90;;;;;;4968574;28;20054;-86
2022/11/13 09:05:29;;;;;;;2.58;1.58;;;7.50;93.80;;;;;;4937777;28;20046;-87
2022/11/13 09:08:15;;;;;;;2.97;1.50;;;7.50;93.80;;;;;;4980364;28;20045;-90
2022/11/13 09:11:05;;;;;;;3.53;1.98;;;7.60;93.80;;;;;;4968435;28;20065;-90
2022/11/13 09:13:51;;;;;;;3.25;1.85;;;7.70;93.80;;;;;;4974658;28;20061;-89
2022/11/13 09:16:39;;;;;;;3.85;1.90;;;7.80;93.70;;;;;;4957194;28;20131;-89
2022/11/13 09:19:26;;;;;;;5.10;2.35;;;7.80;93.60;;;;;;4975870;28;20046;-85
2022/11/13 09:22:11;;;;;;;4.15;2.28;;;7.90;93.60;;;;;;4962792;28;20053;-86
2022/11/13 09:24:57;;;;;;;5.78;2.50;;;8.00;93.50;;;;;;4975904;28;20057;-86
2022/11/13 09:27:43;;;;;;;4.22;2.15;;;8.10;93.40;;;;;;4962016;28;20054;-85
2022/11/13 09:30:32;;;;;;;3.67;1.98;;;8.10;93.40;;;;;;4962085;28;20402;-86
2022/11/13 09:33:17;;;;;;;3.63;1.70;;;8.20;93.40;;;;;;4945156;28;20069;-85
2022/11/13 09:36:10;;;;;;;2.53;1.60;;;8.20;93.30;;;;;;4974209;28;20061;-87
2022/11/13 09:38:56;;;;;;;;;;;8.30;93.60;;;;;;4951679;28;20437;-88
2022/11/13 09:41:50;;;;;;;3.42;1.90;;;8.30;93.60;;;;;;4948603;28;19993;-88
2022/11/13 09:44:44;;;;;;;4.47;2.42;;;8.30;93.30;;;;;;4962622;28;20645;-87
2022/11/13 09:47:36;;;;;;;3.63;2.58;;;8.40;93.20;;;;;;4970212;28;20149;-86
2022/11/13 09:50:26;;;;;;;3.97;2.17;;;8.50;93.10;;;;;;4961808;28;20054;-87
2022/11/13 09:53:13;;;;;;;3.58;2.10;;;8.50;93.10;;;;;;4962483;28;20054;-88
2022/11/13 09:56:26;;;;;;;3.47;2.05;;;8.60;93.10;;;;;;4961936;28;20050;-86
2022/11/13 09:59:38;;;;;;;3.60;2.20;;;8.60;93.00;;;;;;4975197;28;20125;-87
2022/11/13 10:02:56;;;;;;;3.10;1.83;;;8.70;93.00;;;;;;4961503;28;20074;-88
2022/11/13 10:05:50;;;;;;;3.55;1.52;;;8.70;93.00;;;;;;4961907;28;20281;-85
2022/11/13 10:08:45;;;;;;;4.05;1.95;;;8.80;92.90;;;;;;4961152;28;20046;-88
2022/11/13 10:11:45;;;;;;;4.38;2.08;;;8.80;92.90;;;;;;4946217;28;20061;-88
2022/11/13 10:14:42;;;;;;;2.95;1.63;;;8.90;92.90;;;;;;4942261;29;20057;-87
2022/11/13 10:17:35;;;;;;;4.35;1.88;;;8.90;92.80;;;;;;4985749;28;20057;-88
2022/11/13 10:20:23;;;;;;;3.28;1.38;;;8.90;92.80;;;;;;4974808;28;20053;-87
2022/11/13 10:23:23;;;;;;;3.70;2.17;;;9.00;92.90;;;;;;4965206;28;20050;-87
2022/11/13 10:26:18;;;;;;;4.00;2.08;;;9.00;92.70;;;;;;4980388;28;20052;-87
2022/11/13 10:29:19;;;;;;;4.97;2.65;;;9.10;92.70;;;;;;4986681;28;20127;-88
2022/11/13 10:32:26;;;;;;;3.30;1.77;;;9.20;92.50;;;;;;4960906;28;20050;-88
2022/11/13 10:35:40;;;;;;;3.00;1.63;;;9.30;92.50;;;;;;4983218;28;20093;-88
2022/11/13 10:38:54;;;;;;;3.17;1.90;;;9.40;92.40;;;;;;4981540;28;20054;-88
2022/11/13 10:41:51;;;;;;;3.75;1.88;;;9.50;92.40;;;;;;4980051;28;20053;-87
2022/11/13 10:44:39;;;;;;;3.00;1.75;;;9.50;92.40;;;;;;4980378;28;20173;-87
2022/11/13 10:47:27;;;;;;;3.88;2.13;;;9.50;92.30;;;;;;4967302;28;20057;-86
2022/11/13 10:50:34;;;;;;;3.92;1.98;;;9.60;92.20;;;;;;4983741;28;20073;-87
2022/11/13 10:53:19;;;;;;;2.25;1.38;;;9.70;92.20;;;;;;4980004;28;20525;-87
2022/11/13 10:56:33;;;;;;;3.25;1.63;;;9.70;92.20;;;;;;4994414;28;20419;-87
2022/11/13 10:59:20;;;;;;;2.97;1.33;;;9.80;92.10;;;;;;4977739;28;20122;-87
2022/11/13 11:02:17;;;;;;;3.22;1.92;;;9.80;92.10;;;;;;4993289;28;20125;-86
2022/11/13 11:05:25;;;;;;;3.42;2.00;;;9.90;92.00;;;;;;4981788;28;20053;-87
2022/11/13 11:08:14;;;;;;;3.50;2.08;;;9.90;92.00;;;;;;4947784;28;20125;-87
2022/11/13 11:14:29;;;;;;;3.80;2.33;;;10.10;92.00;;;;;;4994559;28;20061;-89
2022/11/13 11:17:17;;;;;;;2.72;1.48;;;10.20;91.70;;;;;;4974048;28;20066;-87
2022/11/13 11:20:32;;;;;;;3.05;1.80;;;10.20;91.60;;;;;;4955862;29;20408;-87
2022/11/13 11:23:17;;;;;;;3.30;1.95;;;10.30;91.60;;;;;;4969138;28;20061;-89
2022/11/13 11:26:19;;;;;;;2.50;1.48;;;10.40;91.60;;;;;;4960096;28;20079;-88
2022/11/13 11:29:20;;;;;;;2.80;1.40;;;10.40;91.50;;;;;;4955681;28;20057;-87
2022/11/13 11:32:17;;;;;;;2.00;1.27;;;10.40;91.50;;;;;;4949909;28;20100;-86
2022/11/13 11:35:15;;;;;;;2.65;1.55;;;10.40;91.60;;;;;;4972085;28;20057;-87
2022/11/13 11:38:09;;;;;;;2.53;1.38;;;10.40;91.60;;;;;;4951642;28;20051;-87
2022/11/13 11:41:16;;;;;;;2.75;1.45;;;10.50;91.60;;;;;;4966792;28;20101;-87
2022/11/13 11:44:08;;;;;;;2.72;1.38;;;10.50;91.50;;;;;;4948943;28;20066;-86
2022/11/13 11:46:56;;;;;;;2.50;1.48;;;10.60;91.60;;;;;;4960660;28;20050;-87
2022/11/13 11:49:44;;;;;;;2.20;1.17;;;10.60;91.50;;;;;;4954266;28;20066;-87
2022/11/13 11:52:51;;;;;;;2.75;1.50;;;10.70;91.50;;;;;;4953338;28;20391;-86
2022/11/13 11:56:00;;;;;;;2.10;1.23;;;10.80;91.40;;;;;;4962496;28;20054;-87
2022/11/13 11:59:01;;;;;;;2.90;1.55;;;10.90;91.30;;;;;;4963542;28;20053;-88
2022/11/13 12:02:40;;;;;;;3.17;1.80;;;11.00;91.20;;;;;;4971768;28;20577;-87
2022/11/13 12:05:42;;;;;;;2.90;1.95;;;11.10;91.10;;;;;;4938315;28;20061;-87
2022/11/13 12:08:58;;;;;;;2.90;1.50;;;11.20;91.00;;;;;;4966675;28;20062;-88
2022/11/13 12:12:24;;;;;;;2.30;1.55;;;11.20;91.00;;;;;;4958343;28;20270;-87
2022/11/13 12:15:19;;;;;;;2.30;1.38;;;11.20;91.00;;;;;;4956098;28;20511;-86
2022/11/13 12:18:32;;;;;;;3.38;2.00;;;11.20;91.10;;;;;;4990124;28;20057;-87
2022/11/13 12:21:33;;;;;;;2.50;1.02;;;11.20;91.10;;;;;;4977721;28;20054;-87
2022/11/13 12:24:40;;;;;;;2.42;1.23;;;11.30;91.10;;;;;;4978175;28;20154;-87
2022/11/13 12:27:37;;;;;;;1.85;1.13;;;11.30;91.10;;;;;;4958062;29;20559;-87
2022/11/13 12:30:30;;;;;;;2.80;1.15;;;11.40;91.10;;;;;;4989362;28;20089;-86
2022/11/13 12:33:38;;;;;;;2.83;1.48;;;11.40;91.00;;;;;;4983649;28;20053;-88
2022/11/13 12:36:24;;;;;;;2.63;1.58;;;11.50;90.90;;;;;;4987755;28;20112;-87
2022/11/13 12:39:15;;;;;;;2.17;1.20;;;11.60;90.90;;;;;;4960020;28;20529;-88
2022/11/13 12:42:25;;;;;;;2.97;1.55;;;11.60;90.80;;;;;;4990006;28;20050;-87
2022/11/13 12:45:23;;;;;;;3.45;1.73;;;11.70;90.80;;;;;;4993418;28;20128;-87
2022/11/13 12:48:21;;;;;;;2.90;1.75;;;11.70;90.70;;;;;;4993495;28;20053;-87
2022/11/13 12:51:09;;;;;;;6.80;1.63;;;11.70;90.70;;;;;;4976516;28;20050;-88
2022/11/13 12:53:55;;;;;;;2.92;1.25;;;11.80;90.80;;;;;;4977135;28;20120;-88
2022/11/13 12:56:48;;;;;;;;;;;11.80;90.80;;;;;;4976893;28;20057;-88
2022/11/13 12:59:38;;;;;;;2.35;1.08;;;11.80;90.90;;;;;;4976436;28;19937;-87
2022/11/13 13:03:01;;;;;;;1.63;0.90;;;11.80;90.80;;;;;;4975702;28;20049;-87
2022/11/13 13:06:06;;;;;;;2.92;1.40;;;11.90;90.60;;;;;;4976163;28;20049;-86
2022/11/13 13:09:19;;;;;;;4.65;1.10;;;12.00;90.60;;;;;;4976274;28;20045;-86
2022/11/13 13:12:36;;;;;;;2.25;1.05;;;12.00;90.60;;;;;;4991075;28;20065;-87
2022/11/13 13:15:30;;;;;;;2.03;1.10;;;12.00;90.50;;;;;;4970747;28;20057;-87
2022/11/13 13:18:19;;;;;;;2.92;1.25;;;12.10;90.50;;;;;;4981430;28;20529;-86
2022/11/13 13:21:13;;;;;;;2.17;1.15;;;12.10;90.50;;;;;;4980915;28;20740;-87
2022/11/13 13:24:07;;;;;;;1.67;1.00;;;12.20;90.40;;;;;;4981788;28;20050;-87
2022/11/13 13:26:54;;;;;;;2.28;1.20;;;12.10;90.30;;;;;;4981735;28;20049;-88
2022/11/13 13:29:40;;;;;;;2.38;1.35;;;12.10;90.30;;;;;;4967819;28;20049;-87
2022/11/13 13:32:47;;;;;;;2.15;1.23;;;12.10;90.30;;;;;;4981306;28;20053;-86
2022/11/13 13:35:56;;;;;;;2.03;0.98;;;12.20;90.20;;;;;;4983043;28;20066;-86
2022/11/13 13:38:58;;;;;;;2.50;1.10;;;12.30;90.00;;;;;;4981116;28;20061;-87
2022/11/13 13:41:57;;;;;;;2.22;1.00;;;12.30;89.90;;;;;;4992197;28;20053;-87
2022/11/13 13:44:45;;;;;;;1.85;0.98;;;12.20;90.00;;;;;;4981343;28;20058;-87
2022/11/13 13:47:39;;;;;;;2.53;0.93;;;12.20;90.10;;;;;;4981011;28;20048;-88
2022/11/13 13:50:29;;;;;;;2.40;0.82;;;12.20;90.10;;;;;;4983019;28;20100;-87
2022/11/13 13:53:29;;;;;;;2.72;1.38;;;12.10;90.00;;;;;;4982303;28;20128;-86
2022/11/13 13:56:15;;;;;;;2.00;0.98;;;12.20;90.00;;;;;;4961850;28;20061;-90
2022/11/13 13:59:01;;;;;;;1.80;0.85;;;12.10;90.00;;;;;;4950042;28;20186;-88
2022/11/13 14:02:22;;;;;;;1.98;0.77;;;12.10;90.00;;;;;;4980280;28;20049;-88
2022/11/13 14:05:36;;;;;;;1.27;0.57;;;12.10;89.80;;;;;;4984566;28;20046;-90
2022/11/13 14:08:24;;;;;;;1.70;0.75;;;12.10;89.70;;;;;;4986128;28;20049;-88
2022/11/13 14:11:28;;;;;;;1.50;0.60;;;12.10;89.80;;;;;;4980579;28;20049;-89
2022/11/13 14:14:20;;;;;;;1.52;0.60;;;12.20;89.40;;;;;;4980399;28;20081;-85
2022/11/13 14:17:09;;;;;;;1.97;0.83;;;12.20;89.40;;;;;;4993636;28;20069;-87
2022/11/13 14:19:59;;;;;;;2.42;0.93;;;12.20;89.30;;;;;;4967520;28;20518;-87
2022/11/13 14:22:52;;;;;;;1.83;0.75;;;12.20;89.10;;;;;;4967709;28;20136;-85
2022/11/13 14:25:42;;;;;;;2.17;1.00;;;12.20;88.90;;;;;;4996903;28;20212;-91
2022/11/13 14:28:33;;;;;;;2.00;0.77;;;12.20;88.80;;;;;;4967096;28;20411;-85
2022/11/13 14:31:19;;;;;;;1.48;0.60;;;12.20;88.80;;;;;;4980315;28;20188;-88
2022/11/13 14:34:13;;;;;;;1.17;0.60;;;12.20;88.80;;;;;;4980638;28;20426;-86
2022/11/13 14:37:35;;;;;;;2.03;0.77;;;12.20;88.60;;;;;;4986790;28;20096;-92
2022/11/13 14:40:23;;;;;;;0.80;0.40;;;12.20;88.50;;;;;;4980475;28;20414;-92
2022/11/13 14:43:19;;;;;;;1.27;0.60;;;12.20;88.60;;;;;;4994273;28;20057;-92
2022/11/13 14:46:27;;;;;;;1.25;0.50;;;12.20;88.60;;;;;;4980581;28;20076;-93
2022/11/13 14:49:24;;;;;;;1.05;0.50;;;12.10;88.70;;;;;;4980267;28;20044;-89
2022/11/13 14:52:24;;;;;;;1.55;0.57;;;11.90;89.10;;;;;;4982512;28;20460;-90
2022/11/13 14:55:30;;;;;;;1.63;0.70;;;11.70;89.40;;;;;;4994024;28;20406;-91
2022/11/13 14:58:26;;;;;;;1.33;0.40;;;11.60;89.80;;;;;;4987749;28;20061;-92
2022/11/13 15:01:14;;;;;;;0.98;0.40;;;11.40;90.10;;;;;;4994203;28;20565;-91
2022/11/13 15:03:59;;;;;;;1.73;0.60;;;11.20;90.30;;;;;;4994322;28;20054;-85
2022/11/13 15:06:45;;;;;;;1.35;0.60;;;11.10;90.40;;;;;;4979962;28;20058;-85
2022/11/13 15:09:30;;;;;;;1.73;0.57;;;11.00;90.50;;;;;;4966069;28;20549;-84
2022/11/13 15:12:16;;;;;;;0.93;0.40;;;11.10;90.40;;;;;;4954883;28;20054;-86
2022/11/13 15:15:01;;;;;;;0.95;0.50;;;11.30;90.10;;;;;;4967020;28;20082;-85